Time;durP1;ratioP1;P1;durP2;ratioP2;P2;SDS_P1;SDS_P2;PMS_P1;PMS_P2;Temp;Humidity;BMP_temperature;BMP_pressure;BME280_temperature;BME280_humidity;BME280_pressure;Samples;Min_cycle;Max_cycle;Signal;HPM_P1;HPM_P2
2024/02/23 00:01:06;;;;;;;8.10;0.77;;;3.10;99.90;;;;;;4934669;28;20435;-82
2024/02/23 00:03:36;;;;;;;5.45;1.30;;;3.10;99.90;;;;;;4944013;28;20600;-82
2024/02/23 00:06:02;;;;;;;4.88;0.80;;;3.10;99.90;;;;;;4935636;29;20395;-84
2024/02/23 00:08:31;;;;;;;5.55;0.88;;;3.10;99.90;;;;;;4939109;28;20031;-83
2024/02/23 00:10:56;;;;;;;2.45;0.90;;;3.10;99.90;;;;;;4963185;28;20125;-83
2024/02/23 00:13:22;;;;;;;7.80;1.00;;;3.10;99.90;;;;;;4946206;28;20111;-83
2024/02/23 00:15:48;;;;;;;4.30;0.90;;;3.10;99.90;;;;;;4939254;29;20486;-84
2024/02/23 00:18:15;;;;;;;3.22;1.02;;;3.10;99.90;;;;;;4939278;29;20477;-83
2024/02/23 00:20:41;;;;;;;5.90;1.73;;;3.10;99.90;;;;;;4937044;29;20042;-84
2024/02/23 00:23:07;;;;;;;4.47;1.20;;;3.10;99.90;;;;;;4954250;29;20019;-81
2024/02/23 00:25:33;;;;;;;3.08;1.10;;;3.00;99.90;;;;;;4956220;28;20111;-83
2024/02/23 00:27:58;;;;;;;9.63;1.05;;;3.00;99.90;;;;;;4938668;29;20053;-85
2024/02/23 00:30:24;;;;;;;5.72;0.85;;;3.00;99.90;;;;;;4956051;28;20054;-85
2024/02/23 00:32:50;;;;;;;6.93;1.45;;;3.00;99.90;;;;;;4953299;28;20355;-85
2024/02/23 00:35:16;;;;;;;8.27;1.05;;;3.00;99.90;;;;;;4938737;29;20023;-82
2024/02/23 00:37:41;;;;;;;4.90;1.00;;;3.00;99.90;;;;;;4938439;29;20027;-84
2024/02/23 00:40:09;;;;;;;5.20;0.88;;;2.90;99.90;;;;;;4955338;29;20062;-84
2024/02/23 00:42:35;;;;;;;15.63;1.40;;;2.90;99.90;;;;;;4936064;29;20019;-82
2024/02/23 00:45:00;;;;;;;2.90;1.60;;;2.90;99.90;;;;;;4955695;28;20082;-83
2024/02/23 00:47:27;;;;;;;3.92;0.90;;;2.90;99.90;;;;;;4938315;29;20027;-83
2024/02/23 00:49:53;;;;;;;9.48;1.42;;;2.90;99.90;;;;;;4938278;29;20035;-83
2024/02/23 00:52:19;;;;;;;4.90;0.93;;;2.90;99.90;;;;;;4936778;29;20075;-82
2024/02/23 00:54:44;;;;;;;2.20;0.82;;;2.90;99.90;;;;;;4932812;29;20020;-83
2024/02/23 00:57:11;;;;;;;4.18;0.80;;;2.90;99.90;;;;;;4938209;29;20428;-82
2024/02/23 00:59:36;;;;;;;7.63;1.27;;;2.90;99.90;;;;;;4938532;29;20019;-82
2024/02/23 01:02:02;;;;;;;8.63;1.17;;;2.90;99.90;;;;;;4938378;29;20305;-83
2024/02/23 01:04:28;;;;;;;10.48;1.40;;;2.90;99.90;;;;;;4954181;29;20073;-83
2024/02/23 01:06:53;;;;;;;4.43;1.27;;;2.80;99.90;;;;;;4938116;29;20019;-83
2024/02/23 01:09:20;;;;;;;11.38;1.00;;;2.80;99.90;;;;;;4937831;29;20489;-83
2024/02/23 01:11:46;;;;;;;10.13;0.90;;;2.80;99.90;;;;;;4972724;28;20130;-82
2024/02/23 01:14:12;;;;;;;4.90;0.77;;;2.90;99.90;;;;;;4972434;28;20463;-83
2024/02/23 01:16:38;;;;;;;12.00;1.25;;;2.90;99.90;;;;;;4974905;28;20021;-82
2024/02/23 01:19:03;;;;;;;3.10;0.82;;;2.90;99.90;;;;;;4973399;28;20098;-82
2024/02/23 01:21:29;;;;;;;3.80;1.05;;;2.90;99.90;;;;;;4956665;28;20073;-81
2024/02/23 01:23:57;;;;;;;8.23;1.20;;;2.90;99.90;;;;;;4967446;28;20364;-82
2024/02/23 01:26:23;;;;;;;9.77;1.05;;;2.90;99.90;;;;;;4954209;28;20035;-84
2024/02/23 01:28:49;;;;;;;5.45;1.10;;;2.90;99.90;;;;;;4975105;28;20030;-84
2024/02/23 01:31:14;;;;;;;8.77;1.88;;;2.90;99.90;;;;;;4983214;28;20189;-82
2024/02/23 01:33:40;;;;;;;10.50;1.25;;;2.90;99.90;;;;;;4984651;28;20023;-81
2024/02/23 01:36:06;;;;;;;5.97;1.05;;;3.00;99.90;;;;;;4955881;28;20054;-82
2024/02/23 01:38:32;;;;;;;4.80;1.02;;;2.90;99.90;;;;;;4973988;28;20113;-82
2024/02/23 01:41:01;;;;;;;9.15;1.27;;;2.90;99.90;;;;;;4956764;28;20113;-82
2024/02/23 01:43:27;;;;;;;9.20;1.80;;;2.90;99.90;;;;;;4972261;28;20110;-82
2024/02/23 01:45:54;;;;;;;5.53;1.23;;;2.90;99.90;;;;;;4960626;28;20420;-84
2024/02/23 01:48:20;;;;;;;3.63;1.00;;;2.90;99.90;;;;;;4973002;28;20042;-82
2024/02/23 01:50:47;;;;;;;7.70;1.15;;;2.90;99.90;;;;;;4955362;28;20030;-82
2024/02/23 01:53:13;;;;;;;7.05;1.10;;;2.90;99.90;;;;;;4973478;28;20173;-82
2024/02/23 01:55:44;;;;;;;5.22;0.98;;;2.80;99.90;;;;;;4965497;28;20026;-86
2024/02/23 01:58:09;;;;;;;4.88;1.23;;;2.80;99.90;;;;;;4956853;28;20059;-84
2024/02/23 02:00:36;;;;;;;7.47;1.30;;;2.80;99.90;;;;;;4953403;28;20085;-82
2024/02/23 02:03:05;;;;;;;5.88;1.30;;;2.80;99.90;;;;;;4952672;28;20029;-84
2024/02/23 02:05:31;;;;;;;4.00;1.17;;;2.80;99.90;;;;;;4943263;29;20034;-83
2024/02/23 02:08:00;;;;;;;5.60;1.38;;;2.80;99.90;;;;;;4967803;28;20031;-82
2024/02/23 02:10:27;;;;;;;3.53;1.10;;;2.80;99.90;;;;;;4952453;28;20050;-83
2024/02/23 02:12:53;;;;;;;6.30;0.80;;;2.80;99.90;;;;;;4952489;29;20034;-83
2024/02/23 02:15:19;;;;;;;3.80;1.02;;;2.80;99.90;;;;;;4944802;28;20031;-82
2024/02/23 02:17:45;;;;;;;8.20;1.10;;;2.80;99.90;;;;;;4950062;28;20023;-82
2024/02/23 02:20:14;;;;;;;5.63;1.15;;;2.90;99.90;;;;;;4933744;29;20515;-82
2024/02/23 02:22:40;;;;;;;6.80;1.13;;;2.80;99.90;;;;;;4934055;29;20044;-82
2024/02/23 02:25:06;;;;;;;3.42;1.02;;;2.90;99.90;;;;;;4938800;29;20023;-82
2024/02/23 02:27:32;;;;;;;8.02;0.80;;;2.90;99.90;;;;;;4947936;29;20034;-82
2024/02/23 02:29:58;;;;;;;4.18;0.88;;;2.90;99.90;;;;;;4949287;29;20023;-82
2024/02/23 02:32:24;;;;;;;2.53;0.80;;;2.90;99.90;;;;;;4949241;28;20019;-83
2024/02/23 02:34:50;;;;;;;4.32;0.80;;;3.00;99.90;;;;;;4934233;29;20114;-83
2024/02/23 02:37:16;;;;;;;7.53;1.25;;;2.90;99.90;;;;;;4936987;29;20140;-81
2024/02/23 02:39:41;;;;;;;4.68;1.00;;;2.90;99.90;;;;;;4950228;29;20130;-81
2024/02/23 02:42:07;;;;;;;2.80;0.95;;;2.90;99.90;;;;;;4952570;28;20028;-83
2024/02/23 02:44:33;;;;;;;4.05;0.82;;;2.90;99.90;;;;;;4945299;28;20031;-81
2024/02/23 02:46:59;;;;;;;8.45;1.05;;;2.90;99.90;;;;;;4949165;28;20051;-81
2024/02/23 02:49:24;;;;;;;1.25;0.45;;;2.90;99.90;;;;;;4934590;29;20475;-82
2024/02/23 02:51:50;;;;;;;4.15;0.82;;;2.90;99.90;;;;;;4935163;29;20040;-82
2024/02/23 02:54:16;;;;;;;7.18;1.35;;;2.90;99.90;;;;;;4948942;29;20191;-83
2024/02/23 02:56:47;;;;;;;10.68;1.20;;;2.90;99.90;;;;;;4951282;28;20325;-81
2024/02/23 02:59:13;;;;;;;5.30;1.25;;;2.90;99.90;;;;;;4953286;28;20027;-81
2024/02/23 03:01:39;;;;;;;7.72;1.00;;;3.00;99.90;;;;;;4952966;29;20031;-82
2024/02/23 03:04:05;;;;;;;4.78;0.95;;;2.90;99.90;;;;;;4951803;28;20027;-81
2024/02/23 03:06:31;;;;;;;4.30;1.10;;;2.90;99.90;;;;;;4939102;29;20110;-81
2024/02/23 03:08:57;;;;;;;8.00;1.25;;;3.00;99.90;;;;;;4937678;29;20042;-81
2024/02/23 03:11:23;;;;;;;8.00;1.40;;;3.00;99.90;;;;;;4952372;28;20056;-81
2024/02/23 03:13:48;;;;;;;2.05;0.80;;;2.90;99.90;;;;;;4952967;28;20153;-80
2024/02/23 03:16:18;;;;;;;3.65;1.40;;;2.90;99.90;;;;;;4950824;29;20094;-81
2024/02/23 03:18:44;;;;;;;5.07;1.15;;;2.90;99.90;;;;;;4955046;28;20054;-83
2024/02/23 03:21:10;;;;;;;1.98;0.90;;;2.90;99.90;;;;;;4956390;29;20038;-83
2024/02/23 03:23:36;;;;;;;2.70;1.00;;;3.00;99.90;;;;;;4952058;28;20028;-84
2024/02/23 03:26:02;;;;;;;2.90;0.90;;;3.00;99.90;;;;;;4946465;29;20539;-82
2024/02/23 03:28:28;;;;;;;3.85;1.20;;;3.00;99.90;;;;;;4937865;29;20040;-82
2024/02/23 03:30:54;;;;;;;4.50;1.05;;;3.00;99.90;;;;;;4952405;28;20019;-83
2024/02/23 03:33:19;;;;;;;6.28;1.05;;;3.00;99.90;;;;;;4953060;28;20330;-85
2024/02/23 03:35:45;;;;;;;3.88;1.63;;;3.00;99.90;;;;;;4952763;29;20058;-83
2024/02/23 03:38:11;;;;;;;5.40;1.20;;;3.00;99.90;;;;;;4956183;29;20034;-82
2024/02/23 03:40:37;;;;;;;2.17;0.82;;;3.00;99.90;;;;;;4955830;29;20023;-83
2024/02/23 03:43:03;;;;;;;6.53;0.80;;;3.00;99.90;;;;;;4953369;28;20035;-82
2024/02/23 03:45:29;;;;;;;2.35;0.70;;;3.10;99.90;;;;;;4952581;28;20027;-83
2024/02/23 03:47:54;;;;;;;2.13;0.90;;;3.10;99.90;;;;;;4939834;29;20042;-84
2024/02/23 03:50:20;;;;;;;3.05;0.90;;;3.10;99.90;;;;;;4956141;28;20472;-83
2024/02/23 03:52:46;;;;;;;2.13;1.08;;;3.10;99.90;;;;;;4955419;29;20027;-84
2024/02/23 03:55:12;;;;;;;4.43;1.15;;;3.10;99.90;;;;;;4949989;28;20035;-83
2024/02/23 03:57:38;;;;;;;4.43;1.08;;;3.20;99.90;;;;;;4947203;29;20111;-85
2024/02/23 04:00:06;;;;;;;3.97;1.08;;;3.20;99.90;;;;;;4954469;29;20098;-85
2024/02/23 04:02:31;;;;;;;4.72;1.00;;;3.10;99.90;;;;;;4953887;28;20049;-85
2024/02/23 04:04:57;;;;;;;4.68;1.23;;;3.20;99.90;;;;;;4953012;28;20515;-85
2024/02/23 04:07:23;;;;;;;4.15;0.93;;;3.10;99.90;;;;;;4952315;28;20043;-84
2024/02/23 04:09:52;;;;;;;3.63;1.20;;;3.10;99.90;;;;;;4955584;28;20054;-85
2024/02/23 04:12:21;;;;;;;3.55;0.95;;;3.10;99.90;;;;;;4940203;29;20030;-86
2024/02/23 04:14:47;;;;;;;3.03;1.05;;;3.10;99.90;;;;;;4939377;29;20047;-86
2024/02/23 04:17:13;;;;;;;4.28;1.10;;;3.00;99.90;;;;;;4956579;28;20039;-87
2024/02/23 04:19:41;;;;;;;3.22;1.00;;;3.00;99.90;;;;;;4940021;29;20074;-85
2024/02/23 04:22:10;;;;;;;3.33;1.13;;;3.00;99.90;;;;;;4940224;29;20027;-86
2024/02/23 04:24:38;;;;;;;3.40;1.30;;;3.00;99.90;;;;;;4939784;29;20027;-86
2024/02/23 04:27:05;;;;;;;7.25;1.33;;;3.00;99.90;;;;;;4939875;29;20024;-86
2024/02/23 04:29:32;;;;;;;2.95;1.10;;;3.00;99.90;;;;;;4939762;29;20020;-86
2024/02/23 04:31:58;;;;;;;5.55;1.40;;;3.00;99.90;;;;;;4951190;28;20036;-86
2024/02/23 04:34:23;;;;;;;6.82;2.28;;;3.00;99.90;;;;;;4939546;29;20081;-86
2024/02/23 04:36:49;;;;;;;5.35;1.55;;;3.00;99.90;;;;;;4946930;28;20441;-86
2024/02/23 04:39:15;;;;;;;4.03;1.55;;;3.00;99.90;;;;;;4956916;28;20089;-86
2024/02/23 04:41:41;;;;;;;8.52;1.90;;;3.00;99.90;;;;;;4939184;29;20055;-86
2024/02/23 04:44:06;;;;;;;3.30;1.17;;;3.10;99.90;;;;;;4939238;29;20479;-86
2024/02/23 04:46:34;;;;;;;7.85;1.80;;;3.10;99.90;;;;;;4935071;29;20019;-86
2024/02/23 04:49:00;;;;;;;4.15;1.70;;;3.10;99.90;;;;;;4939365;29;20043;-86
2024/02/23 04:51:26;;;;;;;7.00;1.40;;;3.10;99.90;;;;;;4956673;28;20023;-86
2024/02/23 04:53:51;;;;;;;4.65;1.40;;;3.10;99.90;;;;;;4939683;29;20030;-87
2024/02/23 04:56:17;;;;;;;3.60;1.20;;;3.10;99.90;;;;;;4939459;29;20543;-86
2024/02/23 04:58:46;;;;;;;4.75;1.83;;;3.10;99.90;;;;;;4938404;29;20042;-89
2024/02/23 05:01:12;;;;;;;3.75;1.30;;;3.20;99.90;;;;;;4939559;29;20027;-90
2024/02/23 05:03:38;;;;;;;2.97;1.50;;;3.20;99.90;;;;;;4956883;28;20030;-87
2024/02/23 05:06:04;;;;;;;2.13;1.42;;;3.20;99.90;;;;;;4939482;29;20023;-86
2024/02/23 05:08:30;;;;;;;1.42;1.33;;;3.20;99.90;;;;;;4937518;29;20058;-87
2024/02/23 05:10:57;;;;;;;2.10;1.10;;;3.30;99.90;;;;;;4941689;29;20070;-88
2024/02/23 05:13:23;;;;;;;5.18;1.17;;;3.20;99.90;;;;;;4938036;29;20419;-86
2024/02/23 05:15:49;;;;;;;5.97;1.40;;;3.20;99.90;;;;;;4956409;28;20054;-87
2024/02/23 05:18:15;;;;;;;2.33;1.20;;;3.20;99.90;;;;;;4938972;29;20023;-87
2024/02/23 05:20:41;;;;;;;4.80;1.60;;;3.20;99.90;;;;;;4935981;29;20115;-87
2024/02/23 05:23:07;;;;;;;1.98;1.30;;;3.30;99.90;;;;;;4945545;29;20030;-86
2024/02/23 05:25:32;;;;;;;3.70;1.17;;;3.20;99.90;;;;;;4938633;29;20027;-86
2024/02/23 05:27:58;;;;;;;6.68;1.40;;;3.20;99.90;;;;;;4937511;29;20039;-86
2024/02/23 05:30:24;;;;;;;5.57;1.40;;;3.20;99.90;;;;;;4953128;28;20024;-88
2024/02/23 05:32:50;;;;;;;2.53;1.27;;;3.20;99.90;;;;;;4934908;29;20024;-86
2024/02/23 05:35:16;;;;;;;2.15;1.35;;;3.20;99.90;;;;;;4937055;29;20498;-87
2024/02/23 05:37:42;;;;;;;2.35;1.17;;;3.20;99.90;;;;;;4936117;29;20027;-87
2024/02/23 05:40:11;;;;;;;2.17;1.15;;;3.20;99.90;;;;;;4954948;29;20020;-87
2024/02/23 05:42:37;;;;;;;6.75;1.35;;;3.20;99.90;;;;;;4937026;29;20023;-86
2024/02/23 05:45:08;;;;;;;1.45;1.10;;;3.20;99.90;;;;;;4936170;29;20043;-86
2024/02/23 05:47:38;;;;;;;4.28;1.10;;;3.20;99.90;;;;;;4946474;29;20062;-85
2024/02/23 05:50:05;;;;;;;5.30;1.15;;;3.20;99.90;;;;;;4935182;29;20058;-86
2024/02/23 05:52:34;;;;;;;3.97;0.90;;;3.20;99.90;;;;;;4929556;29;20111;-86
2024/02/23 05:55:00;;;;;;;4.07;0.90;;;3.20;99.90;;;;;;4934638;29;20028;-84
2024/02/23 05:57:27;;;;;;;9.48;1.08;;;3.20;99.90;;;;;;4934243;29;20031;-86
2024/02/23 05:59:53;;;;;;;4.47;1.90;;;3.30;99.90;;;;;;4934290;29;20048;-85
2024/02/23 06:02:18;;;;;;;11.55;2.00;;;3.30;99.90;;;;;;4936817;29;20043;-85
2024/02/23 06:04:45;;;;;;;1.88;0.80;;;3.20;99.90;;;;;;4936665;29;20042;-85
2024/02/23 06:07:11;;;;;;;6.30;1.60;;;3.30;99.90;;;;;;4935138;29;20078;-85
2024/02/23 06:09:36;;;;;;;4.45;0.82;;;3.20;99.90;;;;;;4935383;29;20055;-85
2024/02/23 06:12:02;;;;;;;1.85;0.85;;;3.30;99.90;;;;;;4935204;29;20030;-86
2024/02/23 06:14:28;;;;;;;2.55;0.77;;;3.30;99.90;;;;;;4934301;29;20079;-89
2024/02/23 06:16:54;;;;;;;5.28;1.05;;;3.30;99.90;;;;;;4935315;29;20062;-86
2024/02/23 06:19:19;;;;;;;2.03;0.70;;;3.30;99.90;;;;;;4936362;29;20423;-86
2024/02/23 06:21:49;;;;;;;3.22;0.90;;;3.40;99.90;;;;;;4934138;29;20036;-86
2024/02/23 06:24:16;;;;;;;3.05;0.80;;;3.30;99.90;;;;;;4918570;29;20114;-87
2024/02/23 06:26:41;;;;;;;2.13;0.73;;;3.30;99.90;;;;;;4917720;29;20030;-86
2024/02/23 06:29:11;;;;;;;4.78;0.70;;;3.40;99.90;;;;;;4921902;29;20469;-87
2024/02/23 06:31:38;;;;;;;6.03;1.95;;;3.40;99.90;;;;;;4923874;29;20467;-86
2024/02/23 06:34:04;;;;;;;3.72;1.10;;;3.40;99.90;;;;;;4927698;29;20036;-86
2024/02/23 06:36:29;;;;;;;3.42;1.10;;;3.40;99.90;;;;;;4918325;29;20023;-85
2024/02/23 06:38:55;;;;;;;4.18;1.00;;;3.40;99.90;;;;;;4935117;29;20515;-85
2024/02/23 06:41:21;;;;;;;2.25;0.70;;;3.40;99.90;;;;;;4936290;29;20166;-86
2024/02/23 06:43:47;;;;;;;4.72;1.10;;;3.40;99.90;;;;;;4927100;29;20035;-86
2024/02/23 06:46:12;;;;;;;1.50;0.82;;;3.40;99.90;;;;;;4941082;29;20490;-85
2024/02/23 06:48:38;;;;;;;2.60;1.10;;;3.40;99.90;;;;;;4937066;29;20041;-86
2024/02/23 06:51:10;;;;;;;2.95;0.98;;;3.40;99.90;;;;;;4936663;29;20498;-88
2024/02/23 06:53:36;;;;;;;3.15;1.23;;;3.40;99.90;;;;;;4937346;29;20063;-85
2024/02/23 06:56:02;;;;;;;3.08;1.00;;;3.40;99.90;;;;;;4934424;29;20109;-85
2024/02/23 06:58:28;;;;;;;2.97;1.02;;;3.50;99.90;;;;;;4933562;29;20028;-88
2024/02/23 07:00:54;;;;;;;2.15;1.10;;;3.40;99.90;;;;;;4934629;29;20023;-86
2024/02/23 07:03:20;;;;;;;3.17;0.85;;;3.50;99.90;;;;;;4943257;29;20034;-88
2024/02/23 07:05:47;;;;;;;5.63;1.42;;;3.50;99.90;;;;;;4933320;29;20043;-86
2024/02/23 07:08:12;;;;;;;2.85;0.70;;;3.50;99.90;;;;;;4935282;29;20082;-86
2024/02/23 07:10:38;;;;;;;2.47;0.85;;;3.50;99.90;;;;;;4937548;29;20420;-85
2024/02/23 07:13:04;;;;;;;2.83;0.65;;;3.50;99.90;;;;;;4944004;29;20059;-84
2024/02/23 07:15:32;;;;;;;3.13;0.77;;;3.50;99.90;;;;;;4953536;28;20030;-85
2024/02/23 07:17:58;;;;;;;3.45;0.82;;;3.50;99.90;;;;;;4944100;29;20353;-85
2024/02/23 07:20:24;;;;;;;3.30;0.68;;;3.50;99.90;;;;;;4943033;29;20078;-86
2024/02/23 07:22:50;;;;;;;2.08;0.70;;;3.60;99.90;;;;;;4953771;28;20367;-85
2024/02/23 07:25:20;;;;;;;2.72;0.93;;;3.60;99.90;;;;;;4939639;29;20387;-86
2024/02/23 07:27:46;;;;;;;4.13;0.88;;;3.60;99.90;;;;;;4944587;29;20432;-85
2024/02/23 07:30:12;;;;;;;7.68;1.35;;;3.60;99.90;;;;;;4968535;28;20031;-86
2024/02/23 07:32:38;;;;;;;2.80;0.70;;;3.60;99.90;;;;;;4954049;28;20046;-86
2024/02/23 07:35:04;;;;;;;3.88;0.80;;;3.70;99.90;;;;;;4940568;29;20058;-86
2024/02/23 07:37:30;;;;;;;5.72;1.20;;;3.70;99.90;;;;;;4942016;29;20033;-85
2024/02/23 07:39:56;;;;;;;4.93;1.55;;;3.70;99.90;;;;;;4953105;28;20262;-86
2024/02/23 07:42:22;;;;;;;2.88;0.80;;;3.70;99.90;;;;;;4952853;28;20073;-85
2024/02/23 07:44:48;;;;;;;5.00;2.10;;;3.70;99.90;;;;;;4946996;29;20455;-85
2024/02/23 07:47:13;;;;;;;6.28;1.70;;;3.70;99.90;;;;;;4947257;28;20026;-86
2024/02/23 07:49:42;;;;;;;12.07;0.88;;;3.80;99.90;;;;;;4947231;29;20019;-86
2024/02/23 07:52:07;;;;;;;5.45;0.80;;;3.80;99.90;;;;;;4947182;29;20030;-85
2024/02/23 07:54:33;;;;;;;5.50;1.25;;;3.80;99.90;;;;;;4949172;28;20027;-85
2024/02/23 07:56:59;;;;;;;9.65;1.83;;;3.80;99.90;;;;;;4955070;28;20121;-85
2024/02/23 07:59:25;;;;;;;5.47;1.10;;;3.80;99.90;;;;;;4945178;29;20386;-85
2024/02/23 08:01:53;;;;;;;3.60;1.08;;;3.80;99.90;;;;;;4956354;28;20034;-85
2024/02/23 08:04:19;;;;;;;7.28;1.10;;;3.80;99.90;;;;;;4946891;28;20102;-85
2024/02/23 08:06:45;;;;;;;4.82;1.20;;;3.80;99.90;;;;;;4946569;28;20047;-86
2024/02/23 08:09:11;;;;;;;6.22;1.08;;;3.80;99.90;;;;;;4944827;29;20047;-86
2024/02/23 08:11:36;;;;;;;3.85;1.48;;;3.80;99.90;;;;;;4942264;28;20047;-85
2024/02/23 08:14:02;;;;;;;7.32;1.60;;;3.80;99.90;;;;;;4956213;28;20448;-85
2024/02/23 08:16:29;;;;;;;11.50;1.90;;;3.80;99.90;;;;;;4946876;29;20375;-83
2024/02/23 08:18:54;;;;;;;4.70;1.90;;;3.90;99.90;;;;;;4955450;28;20035;-83
2024/02/23 08:21:20;;;;;;;9.00;1.67;;;3.90;99.90;;;;;;4953485;29;20030;-85
2024/02/23 08:23:46;;;;;;;6.70;2.10;;;3.90;99.90;;;;;;4946365;28;20452;-85
2024/02/23 08:26:12;;;;;;;3.78;1.00;;;4.00;99.90;;;;;;4946002;29;20059;-85
2024/02/23 08:28:40;;;;;;;5.07;1.30;;;4.00;99.90;;;;;;4946175;28;20432;-86
2024/02/23 08:31:06;;;;;;;9.27;1.50;;;4.00;99.90;;;;;;4951644;28;20345;-85
2024/02/23 08:33:32;;;;;;;8.13;1.77;;;4.10;99.90;;;;;;4957084;28;20155;-85
2024/02/23 08:35:57;;;;;;;5.25;1.50;;;4.10;99.90;;;;;;4954749;28;20110;-85
2024/02/23 08:38:23;;;;;;;7.18;1.90;;;4.20;99.90;;;;;;4937698;29;20526;-85
2024/02/23 08:40:50;;;;;;;6.45;1.80;;;4.30;99.90;;;;;;4933049;29;20114;-84
2024/02/23 08:43:16;;;;;;;6.60;1.50;;;4.50;99.90;;;;;;4938297;29;20039;-85
2024/02/23 08:45:41;;;;;;;4.40;1.50;;;4.50;99.90;;;;;;4938741;29;20488;-86
2024/02/23 08:48:08;;;;;;;7.03;2.53;;;4.60;99.90;;;;;;4934570;29;20037;-86
2024/02/23 08:50:34;;;;;;;5.30;1.75;;;4.60;99.90;;;;;;4941854;29;20024;-85
2024/02/23 08:53:00;;;;;;;5.93;2.13;;;4.50;99.90;;;;;;4953937;29;20113;-86
2024/02/23 08:55:26;;;;;;;7.25;2.75;;;4.40;99.90;;;;;;4954084;28;20026;-84
2024/02/23 08:57:51;;;;;;;15.32;2.80;;;4.40;99.90;;;;;;4944714;29;20036;-85
2024/02/23 09:00:17;;;;;;;10.93;1.60;;;4.50;99.90;;;;;;4938142;29;20027;-85
2024/02/23 09:02:43;;;;;;;4.45;1.40;;;4.50;99.90;;;;;;4947465;29;20472;-85
2024/02/23 09:05:09;;;;;;;4.10;1.33;;;4.50;99.90;;;;;;4950850;28;20038;-86
2024/02/23 09:07:35;;;;;;;4.65;1.27;;;4.50;99.90;;;;;;4935242;29;20494;-85
2024/02/23 09:10:02;;;;;;;4.70;1.15;;;4.60;99.90;;;;;;4935078;29;20059;-85
2024/02/23 09:12:27;;;;;;;7.18;2.30;;;4.60;99.90;;;;;;4937970;29;20031;-85
2024/02/23 09:14:53;;;;;;;4.60;1.23;;;4.70;99.90;;;;;;4932462;29;20031;-85
2024/02/23 09:17:20;;;;;;;5.05;1.10;;;4.80;99.90;;;;;;4952262;28;20098;-84
2024/02/23 09:19:47;;;;;;;6.07;1.38;;;4.90;99.90;;;;;;4951099;29;20456;-85
2024/02/23 09:22:13;;;;;;;6.18;1.52;;;4.90;99.90;;;;;;4937092;29;20031;-86
2024/02/23 09:24:42;;;;;;;5.18;1.20;;;4.90;99.90;;;;;;4930075;29;20122;-85
2024/02/23 09:27:08;;;;;;;6.63;2.58;;;5.00;99.90;;;;;;4949061;29;20129;-85
2024/02/23 09:29:34;;;;;;;9.68;3.85;;;5.00;99.90;;;;;;4935250;29;20056;-84
2024/02/23 09:32:00;;;;;;;7.72;2.15;;;5.00;99.90;;;;;;4949845;29;20423;-85
2024/02/23 09:34:26;;;;;;;3.63;1.17;;;5.00;99.90;;;;;;4954771;28;20023;-85
2024/02/23 09:36:52;;;;;;;5.10;2.40;;;5.00;99.90;;;;;;4937783;29;20097;-84
2024/02/23 09:39:19;;;;;;;6.78;2.35;;;5.00;99.90;;;;;;4937519;29;20110;-85
2024/02/23 09:41:45;;;;;;;8.70;1.50;;;5.00;99.90;;;;;;4937044;29;20050;-85
2024/02/23 09:44:14;;;;;;;6.90;1.52;;;5.10;99.90;;;;;;4933763;29;20058;-85
2024/02/23 09:46:43;;;;;;;8.85;3.28;;;5.20;99.90;;;;;;4935121;29;20031;-85
2024/02/23 09:49:12;;;;;;;5.65;1.73;;;5.30;99.90;;;;;;4937188;29;20170;-85
2024/02/23 09:51:39;;;;;;;5.90;1.80;;;5.40;99.90;;;;;;4937397;29;20023;-85
2024/02/23 09:54:05;;;;;;;11.13;1.52;;;5.50;99.90;;;;;;4936904;29;20419;-86
2024/02/23 09:56:31;;;;;;;12.98;1.55;;;5.60;99.90;;;;;;4936634;29;20055;-85
2024/02/23 09:59:04;;;;;;;4.47;1.00;;;5.70;99.90;;;;;;4936581;29;20027;-87
2024/02/23 10:01:32;;;;;;;5.68;1.63;;;5.90;99.90;;;;;;4937662;29;20062;-84
2024/02/23 10:04:00;;;;;;;3.25;1.20;;;6.00;99.90;;;;;;4937248;29;20079;-86
2024/02/23 10:06:26;;;;;;;8.52;1.10;;;6.30;99.90;;;;;;4935968;29;20475;-84
2024/02/23 10:08:53;;;;;;;4.85;0.90;;;6.40;99.90;;;;;;4936790;29;20033;-85
2024/02/23 10:11:24;;;;;;;4.05;1.00;;;6.60;99.90;;;;;;4947078;29;20379;-86
2024/02/23 10:13:51;;;;;;;5.72;1.00;;;6.80;99.90;;;;;;4954324;29;20097;-86
2024/02/23 10:16:20;;;;;;;6.82;1.30;;;7.00;99.90;;;;;;4938499;28;20035;-77
2024/02/23 10:18:47;;;;;;;6.15;1.10;;;7.30;99.90;;;;;;4948589;28;20035;-78
2024/02/23 10:21:12;;;;;;;3.78;0.80;;;7.40;99.90;;;;;;4951031;28;20035;-78
2024/02/23 10:23:38;;;;;;;6.85;1.05;;;7.50;99.90;;;;;;4951790;28;20030;-79
2024/02/23 10:26:08;;;;;;;4.50;0.95;;;7.30;99.90;;;;;;4951549;28;20134;-81
2024/02/23 10:28:36;;;;;;;3.47;1.00;;;7.20;99.90;;;;;;4951290;29;20039;-78
2024/02/23 10:31:02;;;;;;;12.40;1.95;;;7.10;99.90;;;;;;4952176;28;20032;-78
2024/02/23 10:33:30;;;;;;;6.72;0.65;;;7.00;99.90;;;;;;4945953;28;20023;-76
2024/02/23 10:35:58;;;;;;;4.50;0.90;;;7.00;99.90;;;;;;4957607;28;20375;-78
2024/02/23 10:38:26;;;;;;;7.88;0.95;;;7.00;99.90;;;;;;4969888;28;20171;-85
2024/02/23 10:40:54;;;;;;;11.27;2.10;;;7.10;99.90;;;;;;4963068;28;20556;-78
2024/02/23 10:43:31;;;;;;;9.88;1.98;;;7.10;99.90;;;;;;4951142;29;20027;-77
2024/02/23 10:45:59;;;;;;;7.90;1.20;;;7.00;99.90;;;;;;4952292;28;20029;-78
2024/02/23 10:48:27;;;;;;;7.00;1.40;;;7.00;99.90;;;;;;4952987;28;20019;-79
2024/02/23 10:50:53;;;;;;;4.80;1.08;;;7.00;99.90;;;;;;4948659;28;20035;-78
2024/02/23 10:53:19;;;;;;;7.70;1.30;;;7.10;99.90;;;;;;4944761;28;20035;-78
2024/02/23 10:55:46;;;;;;;6.78;1.88;;;7.10;99.90;;;;;;4948791;28;20024;-76
2024/02/23 10:58:13;;;;;;;13.25;2.40;;;7.10;99.90;;;;;;4953308;28;20059;-78
2024/02/23 11:00:39;;;;;;;14.05;2.58;;;6.90;99.90;;;;;;4949825;28;20476;-79
2024/02/23 11:03:07;;;;;;;18.65;3.22;;;6.80;99.90;;;;;;4946780;28;20162;-82
2024/02/23 11:05:33;;;;;;;11.82;2.20;;;6.70;99.90;;;;;;4946362;28;20043;-80
2024/02/23 11:07:59;;;;;;;15.10;2.83;;;6.80;99.90;;;;;;4952046;28;20134;-76
2024/02/23 11:10:28;;;;;;;8.63;1.10;;;6.90;99.90;;;;;;4959692;28;20045;-77
2024/02/23 11:13:08;;;;;;;2.67;0.70;;;7.10;99.90;;;;;;4953266;28;20038;-79
2024/02/23 11:15:40;;;;;;;2.00;0.70;;;7.20;99.90;;;;;;4953902;28;20047;-80
2024/02/23 11:18:27;;;;;;;4.10;0.90;;;7.20;99.90;;;;;;4931083;28;20403;-82
2024/02/23 11:21:02;;;;;;;6.10;0.90;;;7.30;99.90;;;;;;4961991;28;20031;-80
2024/02/23 11:23:44;;;;;;;1.63;0.60;;;7.70;99.90;;;;;;4942074;28;20087;-78
2024/02/23 11:26:11;;;;;;;3.30;1.45;;;8.20;99.90;;;;;;4944490;28;20024;-79
2024/02/23 11:28:44;;;;;;;9.25;1.23;;;8.70;99.90;;;;;;4940409;29;20043;-77
2024/02/23 11:31:13;;;;;;;5.80;1.00;;;9.00;99.90;;;;;;4951004;28;20027;-77
2024/02/23 11:33:39;;;;;;;4.80;1.67;;;9.30;99.90;;;;;;4939102;29;20022;-78
2024/02/23 11:36:08;;;;;;;5.90;1.52;;;9.50;99.90;;;;;;4956903;28;20027;-79
2024/02/23 11:38:34;;;;;;;9.45;2.53;;;9.40;99.90;;;;;;4955825;28;20110;-81
2024/02/23 11:41:02;;;;;;;3.25;0.70;;;9.20;99.90;;;;;;4931555;29;20031;-77
2024/02/23 11:43:27;;;;;;;5.38;0.60;;;8.90;99.90;;;;;;4947186;28;20090;-77
2024/02/23 11:45:53;;;;;;;3.85;0.63;;;8.60;99.90;;;;;;4938825;29;20042;-80
2024/02/23 11:48:20;;;;;;;8.48;0.77;;;8.40;99.90;;;;;;4953876;28;20038;-78
2024/02/23 11:50:49;;;;;;;1.38;0.80;;;8.30;99.90;;;;;;4933175;28;20126;-81
2024/02/23 11:53:14;;;;;;;5.60;0.88;;;8.20;99.90;;;;;;4952053;28;20072;-85
2024/02/23 11:55:40;;;;;;;4.60;0.90;;;8.20;99.90;;;;;;4933195;28;20456;-86
2024/02/23 11:58:07;;;;;;;6.03;0.80;;;8.10;99.90;;;;;;4938655;29;20172;-84
2024/02/23 12:00:33;;;;;;;4.32;0.80;;;8.10;99.90;;;;;;4939329;29;20034;-85
2024/02/23 12:02:59;;;;;;;9.13;1.40;;;8.10;99.90;;;;;;4939257;29;20038;-85
2024/02/23 12:05:24;;;;;;;6.90;0.90;;;8.00;99.90;;;;;;4937791;29;20045;-88
2024/02/23 12:07:51;;;;;;;5.80;0.85;;;7.90;99.90;;;;;;4948213;28;20031;-84
2024/02/23 12:10:17;;;;;;;9.05;0.90;;;7.80;99.90;;;;;;4938065;29;20058;-86
2024/02/23 12:12:42;;;;;;;9.05;1.58;;;7.80;99.90;;;;;;4939184;29;20476;-85
2024/02/23 12:15:08;;;;;;;7.57;0.80;;;7.80;99.90;;;;;;4937349;29;20023;-84
2024/02/23 12:17:37;;;;;;;5.15;0.75;;;7.70;99.90;;;;;;4953596;28;20831;-84
2024/02/23 12:20:04;;;;;;;5.93;0.80;;;7.70;99.90;;;;;;4954443;28;20038;-85
2024/02/23 12:22:29;;;;;;;20.92;5.60;;;7.70;99.90;;;;;;4938935;29;20464;-89
2024/02/23 12:25:03;;;;;;;11.05;4.78;;;7.90;99.90;;;;;;4937830;29;20027;-86
2024/02/23 12:27:29;;;;;;;7.38;2.30;;;8.10;99.90;;;;;;4938359;29;20479;-84
2024/02/23 12:29:55;;;;;;;9.18;1.85;;;8.10;99.90;;;;;;4937751;29;20464;-85
2024/02/23 12:32:22;;;;;;;4.55;1.15;;;8.10;99.90;;;;;;4956848;28;20154;-84
2024/02/23 12:34:47;;;;;;;3.60;0.82;;;8.20;99.90;;;;;;4936965;29;20468;-78
2024/02/23 12:37:17;;;;;;;3.00;0.80;;;8.30;99.90;;;;;;4954440;29;20050;-78
2024/02/23 12:39:43;;;;;;;3.43;0.77;;;8.40;99.90;;;;;;4936939;29;20038;-76
2024/02/23 12:42:10;;;;;;;3.35;1.00;;;8.60;99.90;;;;;;4937251;29;20259;-81
2024/02/23 12:44:36;;;;;;;3.95;0.63;;;8.90;99.90;;;;;;4933433;29;20101;-77
2024/02/23 12:47:02;;;;;;;3.33;0.70;;;9.30;99.90;;;;;;4953971;28;20468;-80
2024/02/23 12:49:28;;;;;;;4.05;0.63;;;9.50;99.90;;;;;;4954517;29;20035;-77
2024/02/23 12:51:54;;;;;;;4.60;0.85;;;9.50;99.90;;;;;;4937496;29;20082;-78